Time,TemperatureF,DewpointF,PressureIn,WindDirection,WindDirectionDegrees,WindSpeedMPH,WindSpeedGustMPH,Humidity,HourlyPrecipIn,Conditions,Clouds,dailyrainin,SolarRadiationWatts/m^2,SoftwareType,DateUTC
2013-07-11 00:00:00,75.0,73.0,-100.00,NNE,32,3.0,-999.0,94,0.54,,,0.89,1.000000,,2013-07-11 05:00:00,
2013-07-11 00:43:00,75.0,73.0,-100.00,NNE,32,3.0,-999.0,94,0.54,,,0.89,1.000000,,2013-07-11 05:43:00,
2013-07-11 00:52:00,75.0,73.0,-100.00,NNE,32,3.0,-999.0,94,0.54,,,0.89,1.000000,,2013-07-11 05:52:00,
2013-07-11 01:00:00,73.0,71.0,-100.00,ESE,115,0.0,-999.0,96,0.12,,,1.01,1.000000,,2013-07-11 06:00:00,
2013-07-11 01:43:00,73.0,71.0,-100.00,ESE,115,0.0,-999.0,96,0.12,,,1.01,1.000000,,2013-07-11 06:43:00,
2013-07-11 01:53:00,73.0,71.0,-100.00,ESE,115,0.0,-999.0,96,0.12,,,1.01,1.000000,,2013-07-11 06:53:00,
2013-07-11 02:00:00,72.0,71.0,-100.00,SSW,209,2.0,-999.0,97,0.00,,,1.01,1.000000,,2013-07-11 07:00:00,
2013-07-11 02:45:00,72.0,71.0,-100.00,SSW,209,2.0,-999.0,97,0.00,,,1.01,1.000000,,2013-07-11 07:45:00,
2013-07-11 02:53:00,72.0,71.0,-100.00,SSW,209,2.0,-999.0,97,0.00,,,1.01,1.000000,,2013-07-11 07:53:00,
2013-07-11 03:00:00,72.0,71.0,-100.00,NW,324,0.0,-999.0,96,0.00,,,1.01,0.000000,,2013-07-11 08:00:00,
2013-07-11 03:43:00,72.0,71.0,-100.00,NW,324,0.0,-999.0,96,0.00,,,1.01,0.000000,,2013-07-11 08:43:00,
2013-07-11 03:53:00,72.0,71.0,-100.00,NW,324,0.0,-999.0,96,0.00,,,1.01,0.000000,,2013-07-11 08:53:00,
2013-07-11 04:00:00,73.0,72.0,-100.00,North,7,0.0,-999.0,95,0.00,,,1.01,0.000000,,2013-07-11 09:00:00,
2013-07-11 04:43:00,73.0,72.0,-100.00,North,7,0.0,-999.0,95,0.00,,,1.01,0.000000,,2013-07-11 09:43:00,
2013-07-11 04:53:00,73.0,72.0,-100.00,North,7,0.0,-999.0,95,0.00,,,1.01,0.000000,,2013-07-11 09:53:00,
2013-07-11 05:00:00,75.0,72.0,-100.00,NE,45,1.0,-999.0,91,0.00,,,1.01,1.000000,,2013-07-11 10:00:00,
2013-07-11 05:43:00,75.0,72.0,-100.00,NE,45,1.0,-999.0,91,0.00,,,1.01,1.000000,,2013-07-11 10:43:00,
2013-07-11 05:52:00,75.0,72.0,-100.00,NE,45,1.0,-999.0,91,0.00,,,1.01,1.000000,,2013-07-11 10:52:00,
2013-07-11 06:00:00,75.0,72.0,-100.00,East,84,1.0,-999.0,90,0.00,,,1.01,1.000000,,2013-07-11 11:00:00,
2013-07-11 06:43:00,75.0,72.0,-100.00,East,84,1.0,-999.0,90,0.00,,,1.01,1.000000,,2013-07-11 11:43:00,
2013-07-11 06:53:00,75.0,72.0,-100.00,East,84,1.0,-999.0,90,0.00,,,1.01,1.000000,,2013-07-11 11:53:00,
2013-07-11 07:00:00,75.0,71.0,-100.00,NE,40,0.0,-999.0,89,0.00,,,1.01,26.000000,,2013-07-11 12:00:00,
2013-07-11 07:43:00,75.0,71.0,-100.00,NE,40,0.0,-999.0,89,0.00,,,1.01,26.000000,,2013-07-11 12:43:00,
2013-07-11 07:57:00,75.0,71.0,-100.00,NE,40,0.0,-999.0,89,0.00,,,1.01,26.000000,,2013-07-11 12:57:00,
2013-07-11 08:00:00,77.0,72.0,-100.00,ENE,63,0.0,-999.0,85,0.00,,,1.01,169.000000,,2013-07-11 13:00:00,
2013-07-11 08:47:00,77.0,72.0,-100.00,ENE,63,0.0,-999.0,85,0.00,,,1.01,169.000000,,2013-07-11 13:47:00,
2013-07-11 08:55:00,77.0,72.0,-100.00,ENE,63,0.0,-999.0,85,0.00,,,1.01,169.000000,,2013-07-11 13:55:00,
2013-07-11 09:00:00,79.0,72.0,-100.00,NW,309,1.0,-999.0,79,0.00,,,1.01,390.000000,,2013-07-11 14:00:00,
2013-07-11 09:47:00,79.0,72.0,-100.00,NW,309,1.0,-999.0,79,0.00,,,1.01,390.000000,,2013-07-11 14:47:00,
2013-07-11 09:55:00,79.0,72.0,-100.00,NW,309,1.0,-999.0,79,0.00,,,1.01,390.000000,,2013-07-11 14:55:00,
2013-07-11 10:00:00,83.0,71.0,-100.00,East,94,0.0,-999.0,67,0.00,,,1.01,586.000000,,2013-07-11 15:00:00,
2013-07-11 10:48:00,83.0,71.0,-100.00,East,94,0.0,-999.0,67,0.00,,,1.01,586.000000,,2013-07-11 15:48:00,
2013-07-11 10:58:00,83.0,71.0,-100.00,East,94,0.0,-999.0,67,0.00,,,1.01,586.000000,,2013-07-11 15:58:00,
2013-07-11 11:00:00,86.0,73.0,-100.00,NNE,18,0.0,-999.0,65,0.00,,,1.01,755.000000,,2013-07-11 16:00:00,
2013-07-11 11:49:00,86.0,73.0,-100.00,NNE,18,0.0,-999.0,65,0.00,,,1.01,755.000000,,2013-07-11 16:49:00,
2013-07-11 11:56:00,86.0,73.0,-100.00,NNE,18,0.0,-999.0,65,0.00,,,1.01,755.000000,,2013-07-11 16:56:00,
2013-07-11 12:00:00,87.0,73.0,-100.00,ESE,106,1.0,-999.0,63,0.00,,,1.01,837.000000,,2013-07-11 17:00:00,
2013-07-11 12:49:00,87.0,73.0,-100.00,ESE,106,1.0,-999.0,63,0.00,,,1.01,837.000000,,2013-07-11 17:49:00,
2013-07-11 12:56:00,87.0,73.0,-100.00,ESE,106,1.0,-999.0,63,0.00,,,1.01,837.000000,,2013-07-11 17:56:00,
2013-07-11 13:00:00,90.0,73.0,-100.00,ESE,107,1.0,-999.0,58,0.00,,,1.01,894.000000,,2013-07-11 18:00:00,
2013-07-11 13:49:00,90.0,73.0,-100.00,ESE,107,1.0,-999.0,58,0.00,,,1.01,894.000000,,2013-07-11 18:49:00,
2013-07-11 13:56:00,90.0,73.0,-100.00,ESE,107,1.0,-999.0,58,0.00,,,1.01,894.000000,,2013-07-11 18:56:00,
2013-07-11 17:00:00,92.0,66.0,-100.00,South,176,2.0,-999.0,42,0.00,,,1.01,480.000000,,2013-07-11 22:00:00,
2013-07-11 17:49:00,92.0,66.0,-100.00,South,176,2.0,-999.0,42,0.00,,,1.01,480.000000,,2013-07-11 22:49:00,
2013-07-11 17:55:00,92.0,66.0,-100.00,South,176,2.0,-999.0,42,0.00,,,1.01,480.000000,,2013-07-11 22:55:00,
2013-07-11 18:00:00,91.0,69.0,-100.00,South,174,1.0,-999.0,48,0.00,,,0.92,295.000000,,2013-07-11 23:00:00,
2013-07-11 18:47:00,91.0,69.0,-100.00,South,174,1.0,-999.0,48,0.00,,,0.92,295.000000,,2013-07-11 23:47:00,
2013-07-11 19:00:00,86.0,69.0,-100.00,South,180,1.0,-999.0,57,0.00,,,0.83,69.000000,,2013-07-12 00:00:00,
2013-07-11 19:46:00,86.0,69.0,-100.00,South,180,1.0,-999.0,57,0.00,,,0.83,69.000000,,2013-07-12 00:46:00,
2013-07-11 19:58:00,86.0,69.0,-100.00,South,180,1.0,-999.0,57,0.00,,,0.83,69.000000,,2013-07-12 00:58:00,
2013-07-11 20:49:00,83.0,68.0,-100.00,South,179,1.0,-999.0,60,0.00,,,0.83,32.000000,,2013-07-12 01:49:00,
2013-07-11 20:56:00,83.0,68.0,-100.00,South,179,1.0,-999.0,60,0.00,,,0.83,32.000000,,2013-07-12 01:56:00,
2013-07-11 22:00:00,79.0,70.0,-100.00,NW,309,0.0,-999.0,75,0.00,,,0.83,1.000000,,2013-07-12 03:00:00,
2013-07-11 22:46:00,79.0,70.0,-100.00,NW,309,0.0,-999.0,75,0.00,,,0.83,1.000000,,2013-07-12 03:46:00,
2013-07-11 22:56:00,79.0,70.0,-100.00,NW,309,0.0,-999.0,75,0.00,,,0.83,1.000000,,2013-07-12 03:56:00,
2013-07-11 23:00:00,76.0,71.0,-100.00,SSE,148,2.0,-999.0,83,0.00,,,0.66,1.000000,,2013-07-12 04:00:00,
2013-07-11 23:43:00,76.0,71.0,-100.00,SSE,148,2.0,-999.0,83,0.00,,,0.66,1.000000,,2013-07-12 04:43:00,
2013-07-11 23:53:00,76.0,71.0,-100.00,SSE,148,2.0,-999.0,83,0.00,,,0.66,1.000000,,2013-07-12 04:53:00,